createdAt,value
2018-08-20T00:00:46.556Z,6.60
2018-08-20T00:03:14.448Z,5.97
2018-08-20T00:05:46.651Z,9.10
2018-08-20T00:08:14.864Z,6.53
2018-08-20T00:10:42.743Z,8.13
2018-08-20T00:13:10.625Z,7.73
2018-08-20T00:15:38.524Z,7.13
2018-08-20T00:18:06.424Z,7.50
2018-08-20T00:20:34.356Z,6.43
2018-08-20T00:23:02.248Z,7.20
2018-08-20T00:25:37.016Z,8.10
2018-08-20T00:28:04.912Z,10.23
2018-08-20T00:30:33.025Z,6.73
2018-08-20T00:33:00.903Z,7.93
2018-08-20T00:35:28.783Z,9.50
2018-08-20T00:37:56.736Z,6.30
2018-08-20T00:40:24.591Z,7.20
2018-08-20T00:42:52.493Z,8.87
2018-08-20T00:45:20.455Z,7.53
2018-08-20T00:47:48.343Z,7.40
2018-08-20T00:50:16.300Z,10.10
2018-08-20T00:52:44.184Z,6.17
2018-08-20T00:55:12.560Z,8.67
2018-08-20T00:57:40.939Z,9.17
2018-08-20T01:00:09.407Z,7.77
2018-08-20T01:02:37.304Z,6.53
2018-08-20T01:05:05.188Z,8.63
2018-08-20T01:07:33.166Z,8.70
2018-08-20T01:10:01.084Z,6.80
2018-08-20T01:12:29.004Z,7.37
2018-08-20T01:14:57.076Z,5.63
2018-08-20T01:17:24.944Z,7.90
2018-08-20T01:19:52.840Z,9.33
2018-08-20T01:22:21.135Z,9.40
2018-08-20T01:24:49.192Z,8.20
2018-08-20T01:27:21.394Z,8.67
2018-08-20T01:29:49.691Z,9.03
2018-08-20T01:32:17.587Z,7.20
2018-08-20T01:34:45.476Z,8.00
2018-08-20T01:37:13.428Z,8.27
2018-08-20T01:39:41.324Z,8.77
2018-08-20T01:42:09.196Z,9.70
2018-08-20T01:44:37.107Z,7.97
2018-08-20T01:47:05.012Z,9.30
2018-08-20T01:49:32.995Z,6.47
2018-08-20T01:52:00.905Z,7.30
2018-08-20T01:54:28.816Z,9.67
2018-08-20T01:56:57.272Z,6.27
2018-08-20T01:59:25.164Z,8.90
2018-08-20T02:01:53.043Z,9.17
2018-08-20T02:04:21.048Z,7.97
2018-08-20T02:06:49.385Z,9.43
2018-08-20T02:09:17.428Z,10.93
2018-08-20T02:11:45.308Z,9.10
2018-08-20T02:14:13.292Z,8.60
2018-08-20T02:16:41.239Z,7.67
2018-08-20T02:19:09.608Z,9.30
2018-08-20T02:21:37.508Z,7.47
2018-08-20T02:24:05.452Z,8.47
2018-08-20T02:26:33.600Z,7.00
2018-08-20T02:29:01.476Z,6.77
2018-08-20T02:31:29.579Z,8.20
2018-08-20T02:33:57.463Z,8.53
2018-08-20T02:36:25.343Z,9.40
2018-08-20T02:38:53.235Z,9.80
2018-08-20T02:41:21.191Z,8.87
2018-08-20T02:43:49.154Z,10.27
2018-08-20T02:46:21.536Z,9.43
2018-08-20T02:48:49.423Z,8.13
2018-08-20T02:51:17.295Z,8.40
2018-08-20T02:53:45.191Z,7.57
2018-08-20T02:56:13.125Z,9.00
2018-08-20T02:58:41.000Z,7.67
2018-08-20T03:01:08.881Z,7.93
2018-08-20T03:03:36.821Z,8.37
2018-08-20T03:06:04.719Z,11.90
2018-08-20T03:08:32.591Z,7.83
2018-08-20T03:11:00.552Z,9.87
2018-08-20T03:13:28.454Z,9.07
2018-08-20T03:15:56.341Z,7.47
2018-08-20T03:18:24.212Z,9.00
2018-08-20T03:20:52.189Z,10.80
2018-08-20T03:23:20.068Z,9.47
2018-08-20T03:25:47.964Z,7.37
2018-08-20T03:28:16.004Z,8.00
2018-08-20T03:30:43.897Z,9.50
2018-08-20T03:33:11.859Z,12.40
2018-08-20T03:35:40.108Z,9.83
2018-08-20T03:38:07.988Z,9.23
2018-08-20T03:40:35.996Z,8.70
2018-08-20T03:43:03.882Z,9.07
2018-08-20T03:45:31.765Z,7.80
2018-08-20T03:47:59.664Z,10.37
2018-08-20T03:50:27.643Z,7.43
2018-08-20T03:52:55.532Z,9.60
2018-08-20T03:55:23.491Z,9.23
2018-08-20T03:57:51.412Z,8.53
2018-08-20T04:00:23.252Z,10.80
2018-08-20T04:02:51.535Z,20.07
2018-08-20T04:05:19.415Z,16.13
2018-08-20T04:07:47.298Z,12.00
2018-08-20T04:10:15.233Z,8.00
2018-08-20T04:12:43.375Z,8.93
2018-08-20T04:15:11.255Z,15.83
2018-08-20T04:17:39.140Z,8.60
2018-08-20T04:20:07.045Z,10.37
2018-08-20T04:22:34.915Z,12.90
2018-08-20T04:25:02.809Z,19.10
2018-08-20T04:27:30.697Z,11.40
2018-08-20T04:29:58.575Z,10.17
2018-08-20T04:32:26.457Z,7.50
2018-08-20T04:34:54.632Z,9.23
2018-08-20T04:37:22.940Z,9.20
2018-08-20T04:39:50.882Z,10.37
2018-08-20T04:42:18.771Z,7.23
2018-08-20T04:44:46.744Z,9.07
2018-08-20T04:47:14.632Z,8.83
2018-08-20T04:49:42.584Z,10.23
2018-08-20T04:52:10.468Z,9.33
2018-08-20T04:54:38.408Z,10.17
2018-08-20T04:57:06.287Z,9.77
2018-08-20T04:59:34.280Z,8.77
2018-08-20T05:02:02.191Z,8.03
2018-08-20T05:04:30.088Z,9.53
2018-08-20T05:06:57.972Z,9.13
2018-08-20T05:09:25.851Z,10.73
2018-08-20T05:11:53.744Z,10.10
2018-08-20T05:14:21.888Z,8.60
2018-08-20T05:16:49.811Z,11.70
2018-08-20T05:19:17.715Z,9.67
2018-08-20T05:21:45.596Z,9.93
2018-08-20T05:24:13.549Z,10.23
2018-08-20T05:26:41.436Z,10.80
2018-08-20T05:29:09.323Z,11.33
2018-08-20T05:31:37.227Z,9.10
2018-08-20T05:34:05.140Z,11.37
2018-08-20T05:36:33.031Z,10.47
2018-08-20T05:39:00.959Z,9.87
2018-08-20T05:41:28.843Z,11.47
2018-08-20T05:43:57.815Z,12.40
2018-08-20T05:46:25.707Z,8.00
2018-08-20T05:48:53.663Z,11.37
2018-08-20T05:51:21.833Z,16.40
2018-08-20T05:53:49.712Z,14.10
2018-08-20T05:56:17.587Z,8.27
2018-08-20T05:58:45.475Z,12.07
2018-08-20T06:01:13.358Z,12.27
2018-08-20T06:03:41.400Z,10.80
2018-08-20T06:06:09.283Z,10.03
2018-08-20T06:08:37.602Z,9.27
2018-08-20T06:11:05.527Z,8.07
2018-08-20T06:13:33.464Z,17.27
2018-08-20T06:16:01.365Z,11.60
2018-08-20T06:18:29.271Z,10.77
2018-08-20T06:20:57.175Z,10.53
2018-08-20T06:23:26.424Z,9.80
2018-08-20T06:25:54.337Z,10.93
2018-08-20T06:28:22.219Z,13.93
2018-08-20T06:30:50.152Z,12.17
2018-08-20T06:33:18.040Z,12.03
2018-08-20T06:35:45.978Z,10.83
2018-08-20T06:38:13.816Z,8.60
2018-08-20T06:40:41.716Z,12.40
2018-08-20T06:43:09.688Z,9.80
2018-08-20T06:45:37.571Z,11.97
2018-08-20T06:48:05.590Z,13.93
2018-08-20T06:50:33.508Z,12.93
2018-08-20T06:53:01.464Z,12.10
2018-08-20T06:55:29.424Z,8.33
2018-08-20T06:57:57.356Z,11.23
2018-08-20T07:00:25.257Z,12.60
2018-08-20T07:02:53.439Z,9.13
2018-08-20T07:05:21.389Z,10.97
2018-08-20T07:07:50.315Z,7.40
2018-08-20T07:10:18.275Z,8.40
2018-08-20T07:12:46.241Z,11.47
2018-08-20T07:15:15.039Z,11.57
2018-08-20T07:17:43.144Z,6.90
2018-08-20T07:20:11.956Z,9.93
2018-08-20T07:22:39.857Z,11.07
2018-08-20T07:25:08.388Z,10.63
2018-08-20T07:27:36.952Z,9.97
2018-08-20T07:30:07.241Z,9.47
2018-08-20T07:32:35.404Z,8.87
2018-08-20T07:35:03.657Z,10.77
2018-08-20T07:37:31.828Z,8.63
2018-08-20T07:40:00.021Z,9.67
2018-08-20T07:42:28.241Z,11.70
2018-08-20T07:44:56.374Z,7.47
2018-08-20T07:47:24.491Z,8.23
2018-08-20T07:49:52.624Z,8.93
2018-08-20T07:52:20.854Z,10.13
2018-08-20T07:54:48.969Z,9.90
2018-08-20T07:57:17.115Z,8.47
2018-08-20T07:59:45.245Z,8.27
2018-08-20T08:02:13.383Z,11.33
2018-08-20T08:04:41.521Z,8.63
2018-08-20T08:07:09.643Z,8.03
2018-08-20T08:09:37.769Z,11.13
2018-08-20T08:12:06.358Z,8.83
2018-08-20T08:14:35.161Z,9.67
2018-08-20T08:17:03.360Z,7.90
2018-08-20T08:19:31.517Z,6.90
2018-08-20T08:21:59.649Z,9.10
2018-08-20T08:24:27.792Z,10.40
2018-08-20T08:26:55.908Z,9.33
2018-08-20T08:29:24.053Z,10.27
2018-08-20T08:31:52.169Z,10.43
2018-08-20T08:34:20.292Z,8.83
2018-08-20T08:36:48.444Z,12.23
2018-08-20T08:39:16.570Z,11.03
2018-08-20T08:41:44.700Z,10.20
2018-08-20T08:44:12.816Z,13.37
2018-08-20T08:46:41.134Z,8.57
2018-08-20T08:49:09.260Z,10.47
2018-08-20T08:51:38.293Z,10.90
2018-08-20T08:54:06.451Z,11.00
2018-08-20T08:56:34.588Z,10.43
2018-08-20T08:59:02.728Z,9.73
2018-08-20T09:01:30.880Z,7.83
2018-08-20T09:03:59.021Z,8.40
2018-08-20T09:06:27.156Z,9.90
2018-08-20T09:08:55.280Z,8.60
2018-08-20T09:11:23.408Z,8.57
2018-08-20T09:13:51.644Z,9.53
2018-08-20T09:16:19.669Z,7.20
2018-08-20T09:18:47.804Z,11.83
2018-08-20T09:21:15.949Z,9.50
2018-08-20T09:23:44.078Z,7.73
2018-08-20T09:26:12.230Z,8.10
2018-08-20T09:28:40.618Z,7.20
2018-08-20T09:31:08.736Z,7.60
2018-08-20T09:33:36.904Z,9.27
2018-08-20T09:36:05.047Z,8.70
2018-08-20T09:38:33.193Z,7.13
2018-08-20T09:41:01.338Z,6.97
2018-08-20T09:43:29.462Z,16.20
2018-08-20T09:45:57.585Z,7.27
2018-08-20T09:48:25.789Z,8.40
2018-08-20T09:50:53.961Z,7.30
2018-08-20T09:53:22.113Z,8.03
2018-08-20T09:55:50.240Z,7.37
2018-08-20T09:58:18.397Z,7.00
2018-08-20T10:00:46.525Z,8.53
2018-08-20T10:03:14.655Z,8.40
2018-08-20T10:05:42.790Z,6.97
2018-08-20T10:08:10.915Z,6.27
2018-08-20T10:10:39.029Z,7.80
2018-08-20T10:13:07.172Z,7.10
2018-08-20T10:15:35.306Z,9.43
2018-08-20T10:18:03.527Z,7.90
2018-08-20T10:20:31.675Z,7.03
2018-08-20T10:22:59.837Z,6.87
2018-08-20T10:25:28.017Z,4.07
2018-08-20T10:27:56.150Z,5.27
2018-08-20T10:30:24.272Z,6.83
2018-08-20T10:32:52.397Z,5.53
2018-08-20T10:35:20.568Z,3.90
2018-08-20T10:37:48.783Z,3.53
2018-08-20T10:40:16.843Z,5.87
2018-08-20T10:42:45.229Z,3.57
2018-08-20T10:45:14.528Z,2.73
2018-08-20T10:47:43.524Z,2.50
2018-08-20T10:50:14.026Z,3.93
2018-08-20T10:52:42.804Z,2.37
2018-08-20T10:55:10.938Z,3.13
2018-08-20T10:57:39.086Z,2.77
2018-08-20T11:00:07.227Z,2.60
2018-08-20T11:02:35.338Z,3.53
2018-08-20T11:05:03.528Z,2.47
2018-08-20T11:07:31.689Z,4.57
2018-08-20T11:09:59.840Z,3.43
2018-08-20T11:12:27.973Z,2.60
2018-08-20T11:14:56.095Z,2.57
2018-08-20T11:17:24.236Z,2.70
2018-08-20T11:19:52.384Z,3.17
2018-08-20T11:22:20.484Z,2.40
2018-08-20T11:24:48.628Z,3.17
2018-08-20T11:27:16.737Z,2.60
2018-08-20T11:29:45.043Z,2.77
2018-08-20T11:32:13.152Z,3.20
2018-08-20T11:34:41.294Z,2.37
2018-08-20T11:37:09.432Z,3.23
2018-08-20T11:39:37.590Z,3.33
2018-08-20T11:42:05.941Z,2.47
2018-08-20T11:44:33.839Z,2.90
2018-08-20T11:47:01.704Z,2.50
2018-08-20T11:49:29.600Z,4.40
2018-08-20T11:52:00.981Z,3.67
2018-08-20T11:54:29.117Z,4.03
2018-08-20T11:56:57.267Z,4.50
2018-08-20T11:59:25.397Z,4.97
2018-08-20T12:01:53.534Z,4.37
2018-08-20T12:04:22.778Z,2.73
2018-08-20T12:06:51.102Z,2.83
2018-08-20T12:09:18.957Z,2.83
2018-08-20T12:11:46.836Z,1.73
2018-08-20T12:14:14.801Z,4.87
2018-08-20T12:16:42.705Z,2.30
2018-08-20T12:19:10.616Z,4.63
2018-08-20T12:21:38.754Z,2.20
2018-08-20T12:24:06.885Z,3.70
2018-08-20T12:26:35.022Z,3.67
2018-08-20T12:29:03.193Z,3.97
2018-08-20T12:31:31.339Z,5.07
2018-08-20T12:33:59.462Z,5.67
2018-08-20T12:36:27.585Z,6.37
2018-08-20T12:38:55.821Z,3.47
2018-08-20T12:41:24.032Z,3.67
2018-08-20T12:43:52.150Z,3.87
2018-08-20T12:46:20.352Z,4.93
2018-08-20T12:48:50.543Z,2.97
2018-08-20T12:51:20.373Z,2.33
2018-08-20T12:53:48.774Z,2.70
2018-08-20T12:56:16.965Z,3.37
2018-08-20T12:58:48.187Z,6.60
2018-08-20T13:01:16.431Z,4.23
2018-08-20T13:03:44.901Z,3.03
2018-08-20T13:06:13.036Z,4.87
2018-08-20T13:08:41.168Z,3.13
2018-08-20T13:11:09.324Z,2.90
2018-08-20T13:13:37.481Z,2.43
2018-08-20T13:16:06.330Z,2.73
2018-08-20T13:18:34.569Z,2.57
2018-08-20T13:21:02.692Z,3.20
2018-08-20T13:23:30.822Z,2.43
2018-08-20T13:25:58.973Z,2.33
2018-08-20T13:28:27.148Z,3.20
2018-08-20T13:30:55.340Z,4.10
2018-08-20T13:33:23.460Z,2.57
2018-08-20T13:35:51.608Z,4.20
2018-08-20T13:38:19.904Z,2.40
2018-08-20T13:40:48.137Z,3.87
2018-08-20T13:43:16.276Z,2.20
2018-08-20T13:45:44.497Z,3.80
2018-08-20T13:48:12.798Z,2.33
2018-08-20T13:50:40.916Z,4.57
2018-08-20T13:53:09.053Z,3.87
2018-08-20T13:55:38.150Z,4.80
2018-08-20T13:58:06.297Z,2.83
2018-08-20T14:00:34.559Z,2.40
2018-08-20T14:03:02.724Z,3.17
2018-08-20T14:05:31.117Z,2.90
2018-08-20T14:07:59.278Z,4.47
2018-08-20T14:10:27.382Z,2.33
2018-08-20T14:12:55.618Z,2.57
2018-08-20T14:15:23.745Z,2.50
2018-08-20T14:17:51.882Z,2.60
2018-08-20T14:20:20.035Z,2.60
2018-08-20T14:22:48.197Z,2.20
2018-08-20T14:25:16.399Z,2.43
2018-08-20T14:27:44.558Z,2.43
2018-08-20T14:30:15.104Z,2.37
2018-08-20T14:32:43.605Z,2.37
2018-08-20T14:35:12.159Z,2.00
2018-08-20T14:37:40.701Z,2.60
2018-08-20T14:40:12.652Z,2.23
2018-08-20T14:42:40.899Z,2.90
2018-08-20T14:45:10.441Z,2.97
2018-08-20T14:47:39.295Z,3.57
2018-08-20T14:50:10.661Z,2.60
2018-08-20T14:52:38.935Z,2.97
2018-08-20T14:55:07.271Z,2.50
2018-08-20T14:57:36.139Z,3.83
2018-08-20T15:00:05.468Z,3.00
2018-08-20T15:02:33.669Z,7.40
2018-08-20T15:05:01.728Z,3.13
2018-08-20T15:07:29.881Z,2.47
2018-08-20T15:09:58.009Z,2.73
2018-08-20T15:12:26.389Z,2.70
2018-08-20T15:14:54.515Z,2.63
2018-08-20T15:17:22.648Z,3.23
2018-08-20T15:19:50.809Z,3.03
2018-08-20T15:22:18.928Z,3.50
2018-08-20T15:27:28.699Z,2.73
2018-08-20T15:29:57.093Z,2.70
2018-08-20T15:32:25.251Z,3.40
2018-08-20T15:34:53.451Z,2.13
2018-08-20T15:37:21.605Z,4.23
2018-08-20T15:39:49.747Z,3.03
2018-08-20T15:42:18.165Z,3.27
2018-08-20T15:44:46.310Z,3.40
2018-08-20T15:47:14.504Z,2.20
2018-08-20T15:49:52.603Z,4.20
2018-08-20T15:52:21.265Z,4.20
2018-08-20T15:54:50.593Z,2.87
2018-08-20T15:57:19.384Z,2.10
2018-08-20T15:59:48.153Z,3.60
2018-08-20T16:02:17.254Z,3.40
2018-08-20T16:04:47.801Z,4.23
2018-08-20T16:07:16.629Z,3.27
2018-08-20T16:09:45.388Z,5.90
2018-08-20T16:12:15.080Z,3.00
2018-08-20T16:14:43.985Z,5.33
2018-08-20T16:17:12.702Z,2.40
2018-08-20T16:19:42.713Z,2.37
2018-08-20T16:22:11.268Z,2.17
2018-08-20T16:24:40.204Z,2.43
2018-08-20T16:27:09.258Z,2.53
2018-08-20T16:29:37.887Z,2.57
2018-08-20T16:32:06.668Z,3.20
2018-08-20T16:34:35.377Z,2.53
2018-08-20T16:37:04.305Z,2.60
2018-08-20T16:39:33.097Z,4.73
2018-08-20T16:42:01.741Z,3.10
2018-08-20T16:44:30.509Z,4.33
2018-08-20T16:46:59.342Z,4.63
2018-08-20T16:49:28.047Z,2.90
2018-08-20T16:51:57.227Z,3.30
2018-08-20T16:54:25.890Z,2.73
2018-08-20T16:56:54.679Z,4.80
2018-08-20T16:59:23.412Z,2.50
2018-08-20T17:01:52.335Z,3.27
2018-08-20T17:04:30.872Z,2.00
2018-08-20T17:07:00.941Z,2.40
2018-08-20T17:09:30.036Z,2.30
2018-08-20T17:11:59.481Z,2.03
2018-08-20T17:14:28.812Z,2.60
2018-08-20T17:16:57.686Z,2.03
2018-08-20T17:19:26.583Z,4.57
2018-08-20T17:21:55.427Z,3.03
2018-08-20T17:24:40.276Z,2.43
2018-08-20T17:30:04.743Z,3.53
2018-08-20T17:32:35.423Z,2.50
2018-08-20T17:35:04.202Z,3.10
2018-08-20T17:37:37.882Z,3.20
2018-08-20T17:40:09.294Z,2.73
2018-08-20T17:42:39.392Z,2.27
2018-08-20T17:45:10.174Z,6.57
2018-08-20T17:47:41.159Z,1.70
2018-08-20T17:50:44.317Z,4.40
2018-08-20T17:53:13.977Z,2.73
2018-08-20T17:55:43.529Z,1.57
2018-08-20T17:58:13.731Z,1.93
2018-08-20T18:00:48.797Z,3.37
2018-08-20T18:03:23.183Z,5.27
2018-08-20T18:05:56.715Z,2.33
2018-08-20T18:08:26.605Z,3.40
2018-08-20T18:10:55.368Z,5.20
2018-08-20T18:13:34.069Z,2.27
2018-08-20T18:16:06.075Z,3.13
2018-08-20T18:18:36.817Z,2.20
2018-08-20T18:21:05.851Z,2.67
2018-08-20T18:23:35.484Z,2.47
2018-08-20T18:26:04.838Z,5.37
2018-08-20T18:28:35.397Z,2.77
2018-08-20T18:31:10.420Z,3.13
2018-08-20T18:33:38.985Z,2.63
2018-08-20T18:36:12.503Z,2.50
2018-08-20T18:38:44.835Z,5.97
2018-08-20T18:41:12.796Z,4.27
2018-08-20T18:43:40.760Z,4.37
2018-08-20T18:46:08.807Z,2.70
2018-08-20T18:48:39.132Z,3.53
2018-08-20T18:51:08.988Z,3.53
2018-08-20T18:53:37.008Z,3.20
2018-08-20T18:56:10.356Z,3.30
2018-08-20T18:58:38.406Z,3.43
2018-08-20T19:01:06.635Z,3.83
2018-08-20T19:03:38.877Z,3.07
2018-08-20T19:06:06.868Z,4.00
2018-08-20T19:08:35.016Z,3.00
2018-08-20T19:11:02.901Z,3.33
2018-08-20T19:13:30.788Z,2.90
2018-08-20T19:15:58.751Z,3.90
2018-08-20T19:18:32.044Z,3.17
2018-08-20T19:21:00.013Z,6.20
2018-08-20T19:23:27.898Z,3.90
2018-08-20T19:25:55.960Z,3.57
2018-08-20T19:28:24.674Z,3.57
2018-08-20T19:30:53.780Z,3.40
2018-08-20T19:33:23.246Z,2.80
2018-08-20T19:35:51.540Z,3.43
2018-08-20T19:38:19.500Z,2.50
2018-08-20T19:40:51.868Z,3.73
2018-08-20T19:43:19.768Z,2.97
2018-08-20T19:45:47.724Z,3.30
2018-08-20T19:48:15.603Z,3.33
2018-08-20T19:50:43.595Z,2.97
2018-08-20T19:53:17.747Z,4.83
2018-08-20T19:55:45.896Z,3.50
2018-08-20T19:58:14.413Z,2.90
2018-08-20T20:00:46.608Z,2.93
2018-08-20T20:03:14.488Z,3.17
2018-08-20T20:05:42.469Z,3.73
2018-08-20T20:08:10.296Z,3.50
2018-08-20T20:10:39.212Z,3.23
2018-08-20T20:13:07.117Z,5.63
2018-08-20T20:15:39.364Z,4.00
2018-08-20T20:18:07.304Z,3.57
2018-08-20T20:20:35.212Z,3.70
2018-08-20T20:23:03.202Z,3.57
2018-08-20T20:25:31.169Z,4.33
2018-08-20T20:27:59.096Z,2.73
2018-08-20T20:30:26.975Z,3.13
2018-08-20T20:32:54.960Z,4.23
2018-08-20T20:35:22.844Z,3.03
2018-08-20T20:37:50.808Z,4.60
2018-08-20T20:40:18.712Z,4.23
2018-08-20T20:42:46.600Z,5.80
2018-08-20T20:45:14.498Z,2.73
2018-08-20T20:47:42.395Z,2.67
2018-08-20T20:50:10.374Z,3.53
2018-08-20T20:52:38.349Z,2.60
2018-08-20T20:55:06.232Z,3.10
2018-08-20T20:57:34.104Z,2.50
2018-08-20T21:00:02.040Z,2.80
2018-08-20T21:02:29.912Z,2.70
2018-08-20T21:05:03.165Z,3.70
2018-08-20T21:07:33.195Z,4.77
2018-08-20T21:10:01.091Z,2.80
2018-08-20T21:12:29.243Z,4.73
2018-08-20T21:14:57.213Z,3.10
2018-08-20T21:17:25.121Z,4.13
2018-08-20T21:19:53.305Z,3.30
2018-08-20T21:22:21.223Z,3.53
2018-08-20T21:24:49.171Z,3.13
2018-08-20T21:27:24.439Z,3.53
2018-08-20T21:29:54.792Z,5.17
2018-08-20T21:32:22.711Z,4.33
2018-08-20T21:34:50.616Z,4.33
2018-08-20T21:37:18.515Z,4.43
2018-08-20T21:39:46.407Z,4.60
2018-08-20T21:42:14.296Z,3.73
2018-08-20T21:44:42.512Z,4.93
2018-08-20T21:47:15.984Z,4.00
2018-08-20T21:49:43.911Z,3.80
2018-08-20T21:52:12.046Z,5.67
2018-08-20T21:54:39.958Z,3.50
2018-08-20T21:57:07.856Z,4.90
2018-08-20T21:59:35.748Z,3.70
2018-08-20T22:02:03.668Z,3.67
2018-08-20T22:04:31.631Z,4.00
2018-08-20T22:06:59.854Z,3.40
2018-08-20T22:09:27.750Z,3.10
2018-08-20T22:11:56.664Z,3.83
2018-08-20T22:14:24.755Z,4.80
2018-08-20T22:16:52.861Z,4.03
2018-08-20T22:19:20.780Z,3.77
2018-08-20T22:21:48.707Z,3.70
2018-08-20T22:24:16.856Z,3.73
2018-08-20T22:26:49.966Z,3.37
2018-08-20T22:29:18.172Z,3.60
2018-08-20T22:31:51.511Z,5.90
2018-08-20T22:34:19.401Z,4.07
2018-08-20T22:36:50.096Z,4.03
2018-08-20T22:39:18.036Z,3.70
2018-08-20T22:41:46.028Z,4.40
2018-08-20T22:44:13.916Z,3.93
2018-08-20T22:46:41.812Z,4.43
2018-08-20T22:49:09.700Z,4.07
2018-08-20T22:51:38.111Z,5.33
2018-08-20T22:54:06.012Z,4.93
2018-08-20T22:56:35.048Z,4.93
2018-08-20T22:59:03.772Z,4.97
2018-08-20T23:01:31.740Z,4.33
2018-08-20T23:03:59.615Z,4.30
2018-08-20T23:06:27.640Z,4.10
2018-08-20T23:08:55.527Z,5.13
2018-08-20T23:11:33.267Z,6.07
2018-08-20T23:14:01.205Z,5.03
2018-08-20T23:16:29.088Z,4.80
2018-08-20T23:18:57.064Z,6.87
2018-08-20T23:21:26.592Z,5.30
2018-08-20T23:23:54.476Z,5.77
2018-08-20T23:26:22.395Z,6.03
2018-08-20T23:28:50.356Z,7.93
2018-08-20T23:31:18.281Z,7.10
2018-08-20T23:33:46.296Z,5.97
2018-08-20T23:36:14.261Z,8.67
2018-08-20T23:38:42.154Z,9.00
2018-08-20T23:41:10.048Z,7.40
2018-08-20T23:43:39.769Z,6.53
2018-08-20T23:46:12.163Z,7.37
2018-08-20T23:48:40.051Z,6.70
2018-08-20T23:51:08.003Z,6.43
2018-08-20T23:53:35.960Z,6.47
2018-08-20T23:56:04.363Z,7.50
2018-08-20T23:58:32.235Z,9.13
